Time;durP1;ratioP1;P1;durP2;ratioP2;P2;SDS_P1;SDS_P2;PMS_P1;PMS_P2;Temp;Humidity;BMP_temperature;BMP_pressure;BME280_temperature;BME280_humidity;BME280_pressure;Samples;Min_cycle;Max_cycle;Signal;HPM_P1;HPM_P2
2022/06/05 00:03:42;;;;;;;;;;;;;;;14.83;100.00;99781.59;5035336;28;669;-62
2022/06/05 00:06:14;;;;;;;;;;;;;;;14.78;100.00;99773.75;5035068;28;835;-62
2022/06/05 00:09:00;;;;;;;;;;;;;;;14.68;100.00;99774.81;5034973;28;836;-62
2022/06/05 00:11:28;;;;;;;;;;;;;;;14.53;100.00;99768.75;5034901;28;1902;-62
2022/06/05 00:13:55;;;;;;;;;;;;;;;14.46;100.00;99763.31;5034888;28;842;-62
2022/06/05 00:16:24;;;;;;;;;;;;;;;14.40;100.00;99753.91;5034823;28;847;-62
2022/06/05 00:18:52;;;;;;;;;;;;;;;14.38;100.00;99759.09;5034827;28;818;-62
2022/06/05 00:21:18;;;;;;;;;;;;;;;14.38;100.00;99756.34;5016878;28;861;-62
2022/06/05 00:23:46;;;;;;;;;;;;;;;14.36;100.00;99745.66;5034758;28;850;-62
2022/06/05 00:26:33;;;;;;;;;;;;;;;14.36;100.00;99748.44;5034668;28;874;-62
2022/06/05 00:29:15;;;;;;;;;;;;;;;14.38;100.00;99737.69;5034561;28;930;-62
2022/06/05 00:31:44;;;;;;;;;;;;;;;14.36;100.00;99740.09;5034266;28;1889;-62
2022/06/05 00:34:11;;;;;;;;;;;;;;;14.33;100.00;99735.38;5016779;28;1189;-62
2022/06/05 00:36:52;;;;;;;;;;;;;;;14.24;100.00;99724.06;5034476;28;901;-62
2022/06/05 00:39:21;;;;;;;;;;;;;;;14.20;100.00;99726.13;5034439;28;866;-62
2022/06/05 00:41:54;;;;;;;;;;;;;;;14.20;100.00;99723.34;5034724;28;795;-62
2022/06/05 00:44:24;;;;;;;;;;;;;;;14.27;100.00;99717.63;5033628;28;847;-62
2022/06/05 00:46:52;;;;;;;;;;;;;;;14.33;99.60;99727.03;5034322;28;869;-62
2022/06/05 00:49:21;;;;;;;;;;;;;;;14.27;99.39;99718.44;5034060;28;1967;-62
2022/06/05 00:51:48;;;;;;;;;;;;;;;14.27;99.45;99728.75;5016353;28;1311;-62
2022/06/05 00:54:15;;;;;;;;;;;;;;;14.34;98.73;99725.84;5034188;28;850;-61
2022/06/05 00:56:41;;;;;;;;;;;;;;;14.48;97.33;99728.28;5034077;28;803;-62
2022/06/05 00:59:10;;;;;;;;;;;;;;;14.59;97.02;99727.31;5034096;28;815;-61
2022/06/05 01:01:37;;;;;;;;;;;;;;;14.64;97.13;99721.25;5033972;28;827;-61
2022/06/05 01:04:03;;;;;;;;;;;;;;;14.72;96.80;99730.19;5033963;28;787;-62
2022/06/05 01:06:30;;;;;;;;;;;;;;;14.72;96.43;99719.84;5033891;28;862;-62
2022/06/05 01:08:57;;;;;;;;;;;;;;;14.73;96.31;99727.00;5034136;28;814;-62
2022/06/05 01:11:37;;;;;;;;;;;;;;;14.76;95.92;99723.31;5033788;28;1882;-62
2022/06/05 01:14:21;;;;;;;;;;;;;;;14.81;96.20;99716.50;5033765;28;858;-62
2022/06/05 01:16:53;;;;;;;;;;;;;;;14.81;96.61;99711.69;5033882;28;835;-62
2022/06/05 01:19:32;;;;;;;;;;;;;;;14.79;97.59;99707.78;5033542;28;803;-62
2022/06/05 01:22:02;;;;;;;;;;;;;;;14.78;98.58;99711.78;5033769;28;842;-61
2022/06/05 01:24:47;;;;;;;;;;;;;;;14.75;99.02;99713.44;5033953;28;830;-61
2022/06/05 01:27:17;;;;;;;;;;;;;;;14.72;99.21;99708.72;5033543;28;896;-62
2022/06/05 01:29:50;;;;;;;;;;;;;;;14.72;98.67;99705.16;5033832;28;1975;-62
2022/06/05 01:32:25;;;;;;;;;;;;;;;14.66;97.97;99702.13;5033266;28;1384;-62
2022/06/05 01:34:54;;;;;;;;;;;;;;;14.68;96.98;99714.38;5033486;28;856;-62
2022/06/05 01:37:22;;;;;;;;;;;;;;;14.71;97.44;99712.72;5016076;28;1343;-61
2022/06/05 01:39:52;;;;;;;;;;;;;;;14.74;98.88;99711.06;5033421;28;795;-61
2022/06/05 01:42:24;;;;;;;;;;;;;;;14.74;99.16;99711.84;5033294;28;858;-62
2022/06/05 01:44:55;;;;;;;;;;;;;;;14.73;99.81;99712.31;5033249;28;866;-62
2022/06/05 01:47:24;;;;;;;;;;;;;;;14.71;99.40;99707.16;5033176;28;834;-62
2022/06/05 01:50:13;;;;;;;;;;;;;;;14.72;98.34;99703.16;5015143;28;1910;-62
2022/06/05 01:52:46;;;;;;;;;;;;;;;14.77;95.65;99707.44;5033081;28;855;-62
2022/06/05 01:55:16;;;;;;;;;;;;;;;14.84;94.18;99705.25;5033068;28;791;-62
2022/06/05 01:57:44;;;;;;;;;;;;;;;14.84;94.21;99698.91;5032502;28;818;-62
2022/06/05 02:00:16;;;;;;;;;;;;;;;14.80;94.59;99701.00;5032964;28;823;-62
2022/06/05 02:03:04;;;;;;;;;;;;;;;14.77;94.72;99699.09;5032834;28;800;-62
2022/06/05 02:05:37;;;;;;;;;;;;;;;14.72;94.70;99700.38;5032852;28;898;-61
2022/06/05 02:08:08;;;;;;;;;;;;;;;14.72;96.18;99700.38;5032780;28;800;-62
2022/06/05 02:10:39;;;;;;;;;;;;;;;14.69;97.66;99698.47;5032962;28;1951;-62
2022/06/05 02:13:05;;;;;;;;;;;;;;;14.64;99.46;99699.78;5032656;28;815;-61
2022/06/05 02:15:32;;;;;;;;;;;;;;;14.63;100.00;99700.97;5032613;28;862;-61
2022/06/05 02:18:00;;;;;;;;;;;;;;;14.60;100.00;99698.28;5032527;28;843;-62
2022/06/05 02:20:27;;;;;;;;;;;;;;;14.59;100.00;99694.72;5014738;28;1284;-62
2022/06/05 02:22:54;;;;;;;;;;;;;;;14.56;100.00;99695.59;5032716;28;827;-62
2022/06/05 02:25:24;;;;;;;;;;;;;;;14.54;100.00;99694.44;5032480;28;882;-62
2022/06/05 02:28:00;;;;;;;;;;;;;;;14.48;100.00;99678.25;5032276;28;1056;-62
2022/06/05 02:30:37;;;;;;;;;;;;;;;14.43;100.00;99675.22;5032320;28;1953;-61
2022/06/05 02:33:06;;;;;;;;;;;;;;;14.37;100.00;99669.38;5032150;28;1277;-62
2022/06/05 02:35:33;;;;;;;;;;;;;;;14.36;100.00;99676.16;5032298;28;780;-62
2022/06/05 02:38:18;;;;;;;;;;;;;;;14.39;100.00;99669.72;5032243;28;818;-62
2022/06/05 02:41:03;;;;;;;;;;;;;;;14.42;100.00;99671.66;5014406;28;890;-62
2022/06/05 02:43:37;;;;;;;;;;;;;;;14.45;99.81;99676.34;5032325;28;791;-62
2022/06/05 02:46:22;;;;;;;;;;;;;;;14.56;98.47;99675.34;5032122;28;815;-61
2022/06/05 02:48:53;;;;;;;;;;;;;;;14.69;98.22;99670.66;5032112;28;846;-62
2022/06/05 02:51:26;;;;;;;;;;;;;;;14.82;98.45;99668.72;5032221;28;1914;-61
2022/06/05 02:53:55;;;;;;;;;;;;;;;14.99;99.01;99669.50;5031979;28;819;-61
2022/06/05 02:56:23;;;;;;;;;;;;;;;15.11;99.41;99668.03;5031920;28;874;-62
2022/06/05 02:58:50;;;;;;;;;;;;;;;15.21;100.00;99683.69;5031909;28;838;-61
2022/06/05 03:04:02;;;;;;;;;;;;;;;15.32;100.00;99678.63;5032120;28;625;-61
2022/06/05 03:06:33;;;;;;;;;;;;;;;15.35;100.00;99679.75;5031740;28;771;-61
2022/06/05 03:09:00;;;;;;;;;;;;;;;15.34;100.00;99675.41;5031574;28;791;-61
2022/06/05 03:11:27;;;;;;;;;;;;;;;15.34;100.00;99680.16;5030326;28;1898;-61
2022/06/05 03:13:54;;;;;;;;;;;;;;;15.30;100.00;99677.50;5013886;28;1386;-61
2022/06/05 03:16:20;;;;;;;;;;;;;;;15.27;100.00;99673.56;5031640;28;811;-61
2022/06/05 03:18:47;;;;;;;;;;;;;;;15.27;100.00;99676.34;5031554;28;869;-60
2022/06/05 03:21:14;;;;;;;;;;;;;;;15.29;100.00;99670.34;5013926;28;1152;-61
2022/06/05 03:23:41;;;;;;;;;;;;;;;15.34;100.00;99672.63;5031490;28;791;-62
2022/06/05 03:26:12;;;;;;;;;;;;;;;15.42;100.00;99678.75;5031594;28;834;-60
2022/06/05 03:28:38;;;;;;;;;;;;;;;15.50;100.00;99655.06;5014004;28;1321;-62
2022/06/05 03:31:06;;;;;;;;;;;;;;;15.58;100.00;99658.44;5032086;28;1963;-62
2022/06/05 03:33:32;;;;;;;;;;;;;;;15.67;100.00;99655.81;5031796;28;890;-61
2022/06/05 03:35:59;;;;;;;;;;;;;;;15.77;100.00;99659.53;5031542;28;834;-59
2022/06/05 03:38:26;;;;;;;;;;;;;;;15.84;99.90;99662.91;5032113;28;873;-61
2022/06/05 03:40:52;;;;;;;;;;;;;;;15.95;99.49;99661.81;5032103;28;776;-61
2022/06/05 03:43:19;;;;;;;;;;;;;;;16.04;98.81;99656.34;5031344;28;917;-61
2022/06/05 03:45:46;;;;;;;;;;;;;;;16.13;98.38;99656.50;5031658;28;803;-61
2022/06/05 03:48:12;;;;;;;;;;;;;;;16.22;98.21;99658.63;5031240;28;814;-60
2022/06/05 03:50:40;;;;;;;;;;;;;;;16.32;97.95;99649.13;5031209;28;1969;-61
2022/06/05 03:53:07;;;;;;;;;;;;;;;16.40;97.33;99635.75;5013548;28;1236;-59
2022/06/05 03:55:33;;;;;;;;;;;;;;;16.49;96.90;99638.66;5031430;28;803;-61
2022/06/05 03:58:00;;;;;;;;;;;;;;;16.61;96.23;99637.84;5031402;28;842;-61
2022/06/05 04:00:26;;;;;;;;;;;;;;;16.75;95.38;99645.00;5031265;28;935;-61
2022/06/05 04:02:53;;;;;;;;;;;;;;;16.88;94.54;99637.41;5031146;28;867;-61
2022/06/05 04:05:20;;;;;;;;;;;;;;;17.04;93.71;99644.06;5031240;28;807;-61
2022/06/05 04:07:47;;;;;;;;;;;;;;;17.16;92.51;99646.06;5031304;28;799;-61
2022/06/05 04:10:15;;;;;;;;;;;;;;;17.28;91.73;99648.03;5030997;28;1941;-58
2022/06/05 04:12:42;;;;;;;;;;;;;;;17.39;91.08;99647.66;5031123;28;827;-60
2022/06/05 04:15:09;;;;;;;;;;;;;;;17.49;90.64;99654.06;5031040;28;827;-61
2022/06/05 04:17:36;;;;;;;;;;;;;;;17.61;90.66;99649.69;5030941;28;827;-59
2022/06/05 04:20:03;;;;;;;;;;;;;;;17.80;90.29;99642.19;5033184;28;874;-61
2022/06/05 04:22:30;;;;;;;;;;;;;;;17.99;89.44;99643.91;5034724;28;838;-61
2022/06/05 04:24:59;;;;;;;;;;;;;;;18.23;88.72;99635.78;5034692;28;787;-60
2022/06/05 04:27:26;;;;;;;;;;;;;;;18.53;87.72;99639.78;5034980;28;830;-60
2022/06/05 04:29:52;;;;;;;;;;;;;;;18.80;86.04;99640.34;5035019;28;1957;-61
2022/06/05 04:32:19;;;;;;;;;;;;;;;18.93;84.75;99638.22;5034395;28;1248;-61
2022/06/05 04:34:46;;;;;;;;;;;;;;;19.09;84.39;99643.50;5034671;28;863;-61
2022/06/05 04:37:13;;;;;;;;;;;;;;;19.22;84.13;99640.56;5034483;28;830;-61
2022/06/05 04:39:40;;;;;;;;;;;;;;;19.28;83.93;99635.91;5034718;28;878;-60
2022/06/05 04:42:06;;;;;;;;;;;;;;;19.35;83.95;99649.63;5034426;28;823;-61
2022/06/05 04:44:33;;;;;;;;;;;;;;;19.49;84.09;99642.59;5034342;28;858;-61
2022/06/05 04:47:00;;;;;;;;;;;;;;;19.61;83.82;99642.91;5034211;28;850;-60
2022/06/05 04:49:27;;;;;;;;;;;;;;;19.63;83.94;99640.41;5034430;28;863;-61
2022/06/05 04:51:53;;;;;;;;;;;;;;;19.72;83.94;99641.22;5034276;28;866;-61
2022/06/05 04:54:20;;;;;;;;;;;;;;;19.88;83.80;99642.88;5034139;28;905;-61
2022/06/05 04:56:48;;;;;;;;;;;;;;;20.05;83.26;99634.13;5034168;28;814;-60
2022/06/05 04:59:14;;;;;;;;;;;;;;;20.21;82.97;99630.97;5034156;28;831;-60
2022/06/05 05:01:40;;;;;;;;;;;;;;;20.39;82.21;99632.91;5016275;28;1378;-61
2022/06/05 05:04:11;;;;;;;;;;;;;;;20.54;81.94;99627.38;5033987;28;847;-61
2022/06/05 05:06:38;;;;;;;;;;;;;;;20.72;81.30;99624.50;5034528;28;857;-61
2022/06/05 05:09:05;;;;;;;;;;;;;;;20.94;80.85;99623.44;5034564;28;799;-61
2022/06/05 05:11:31;;;;;;;;;;;;;;;21.20;80.45;99616.06;5033790;28;1962;-61
2022/06/05 05:13:58;;;;;;;;;;;;;;;21.52;79.17;99621.28;5033812;28;870;-61
2022/06/05 05:16:26;;;;;;;;;;;;;;;21.85;78.24;99623.16;5033650;28;890;-61
2022/06/05 05:18:54;;;;;;;;;;;;;;;22.18;76.71;99622.94;5034449;28;830;-61
2022/06/05 05:21:22;;;;;;;;;;;;;;;22.56;75.47;99616.41;5033947;28;874;-61
2022/06/05 05:23:49;;;;;;;;;;;;;;;22.99;73.35;99619.53;5033932;28;917;-61
2022/06/05 05:26:18;;;;;;;;;;;;;;;23.50;71.51;99619.38;5033730;28;802;-61
2022/06/05 05:28:45;;;;;;;;;;;;;;;24.09;69.40;99623.78;5015802;28;1395;-61
2022/06/05 05:31:17;;;;;;;;;;;;;;;24.55;67.78;99620.81;5032931;28;1890;-62
2022/06/05 05:33:44;;;;;;;;;;;;;;;25.08;66.05;99623.44;5033531;28;811;-61
2022/06/05 05:36:11;;;;;;;;;;;;;;;25.37;64.17;99617.38;5033472;28;870;-61
2022/06/05 05:38:38;;;;;;;;;;;;;;;25.59;62.84;99622.31;5033372;28;854;-61
2022/06/05 05:43:50;;;;;;;;;;;;;;;26.70;60.25;99621.34;5033498;28;614;-62
2022/06/05 05:46:17;;;;;;;;;;;;;;;27.44;57.27;99603.50;5033105;28;850;-61
2022/06/05 05:48:44;;;;;;;;;;;;;;;27.93;55.63;99610.66;5033172;28;858;-61
2022/06/05 05:51:11;;;;;;;;;;;;;;;28.77;54.17;99609.91;5033094;28;1945;-61
2022/06/05 05:53:38;;;;;;;;;;;;;;;29.97;50.81;99607.03;5033108;28;594;-62
2022/06/05 05:56:09;;;;;;;;;;;;;;;31.02;48.40;99602.78;5033006;28;870;-62
2022/06/05 05:58:39;;;;;;;;;;;;;;;31.58;46.27;99609.38;5033023;28;808;-62
2022/06/05 06:01:07;;;;;;;;;;;;;;;32.25;44.97;99606.97;5032952;28;873;-62
2022/06/05 06:03:34;;;;;;;;;;;;;;;32.84;43.19;99608.53;5033199;28;795;-62
2022/06/05 06:06:01;;;;;;;;;;;;;;;33.28;42.34;99614.31;5032798;28;877;-62
2022/06/05 06:08:28;;;;;;;;;;;;;;;33.72;41.35;99617.16;5032776;28;1020;-62
2022/06/05 06:10:55;;;;;;;;;;;;;;;34.44;40.38;99612.41;5032717;28;1953;-62
2022/06/05 06:13:22;;;;;;;;;;;;;;;34.56;39.61;99610.69;5014886;28;1286;-62
2022/06/05 06:15:50;;;;;;;;;;;;;;;34.74;38.91;99606.66;5032831;28;861;-62
2022/06/05 06:18:16;;;;;;;;;;;;;;;35.14;38.06;99608.09;5032574;28;834;-62
2022/06/05 06:20:44;;;;;;;;;;;;;;;35.33;37.66;99610.50;5032549;28;834;-62
2022/06/05 06:23:09;;;;;;;;;;;;;;;35.15;37.32;99601.78;5014738;28;840;-62
2022/06/05 06:25:36;;;;;;;;;;;;;;;35.25;37.08;99604.81;5032464;28;906;-62
2022/06/05 06:28:04;;;;;;;;;;;;;;;35.69;36.48;99603.63;5032318;28;1037;-62
2022/06/05 06:30:32;;;;;;;;;;;;;;;35.97;35.28;99603.22;5032291;28;1949;-61
2022/06/05 06:32:59;;;;;;;;;;;;;;;35.85;36.12;99605.06;5032075;28;1290;-59
2022/06/05 06:35:27;;;;;;;;;;;;;;;35.84;36.34;99606.38;5032305;28;830;-62
2022/06/05 06:37:54;;;;;;;;;;;;;;;36.18;36.29;99608.63;5032403;28;846;-62
2022/06/05 06:40:21;;;;;;;;;;;;;;;36.27;35.57;99607.22;5032194;28;815;-62
2022/06/05 06:42:48;;;;;;;;;;;;;;;36.84;35.53;99605.53;5031596;28;850;-62
2022/06/05 06:45:15;;;;;;;;;;;;;;;37.09;34.97;99602.59;5032050;28;799;-62
2022/06/05 06:47:41;;;;;;;;;;;;;;;36.94;36.43;99602.75;5032036;28;874;-62
2022/06/05 06:50:08;;;;;;;;;;;;;;;36.61;36.26;99602.91;5031946;28;1918;-62
2022/06/05 06:52:36;;;;;;;;;;;;;;;36.43;37.51;99607.09;5031979;28;854;-62
2022/06/05 06:55:04;;;;;;;;;;;;;;;36.78;36.57;99600.03;5030649;28;897;-62
2022/06/05 06:57:30;;;;;;;;;;;;;;;36.91;35.73;99601.03;5031944;28;858;-62
2022/06/05 06:59:57;;;;;;;;;;;;;;;37.28;35.53;99604.06;5031841;28;882;-62
2022/06/05 07:02:24;;;;;;;;;;;;;;;37.79;36.09;99606.06;5031901;28;861;-62
2022/06/05 07:04:51;;;;;;;;;;;;;;;37.69;35.65;99604.50;5031778;28;838;-62
2022/06/05 07:07:17;;;;;;;;;;;;;;;37.32;35.26;99605.19;5031772;28;882;-61
2022/06/05 07:09:44;;;;;;;;;;;;;;;37.26;36.47;99601.78;5031725;28;1951;-62
2022/06/05 07:12:11;;;;;;;;;;;;;;;37.44;34.89;99601.75;5031697;28;843;-62
2022/06/05 07:14:38;;;;;;;;;;;;;;;37.68;35.26;99602.97;5031559;28;910;-62
2022/06/05 07:17:05;;;;;;;;;;;;;;;37.76;35.45;99600.72;5031606;28;878;-62
2022/06/05 07:19:31;;;;;;;;;;;;;;;37.95;34.73;99595.03;5031628;28;823;-62
2022/06/05 07:21:58;;;;;;;;;;;;;;;37.78;34.76;99598.75;5031884;28;840;-62
2022/06/05 07:24:24;;;;;;;;;;;;;;;37.39;34.95;99597.78;5031567;28;862;-61
2022/06/05 07:26:51;;;;;;;;;;;;;;;37.48;35.38;99599.94;5031616;28;823;-61
2022/06/05 07:29:17;;;;;;;;;;;;;;;37.86;35.05;99598.66;5031758;28;1085;-61
2022/06/05 07:31:44;;;;;;;;;;;;;;;38.30;33.69;99602.75;5031360;28;1943;-61
2022/06/05 07:34:11;;;;;;;;;;;;;;;38.63;32.96;99597.38;5031511;28;854;-61
2022/06/05 07:36:38;;;;;;;;;;;;;;;38.67;32.87;99591.91;5031410;28;901;-61
2022/06/05 07:39:04;;;;;;;;;;;;;;;38.95;32.82;99596.19;5031311;28;935;-61
2022/06/05 07:41:34;;;;;;;;;;;;;;;39.17;32.68;99590.53;5031343;28;811;-62
2022/06/05 07:44:01;;;;;;;;;;;;;;;38.85;32.57;99592.53;5031274;28;803;-61
2022/06/05 07:46:28;;;;;;;;;;;;;;;38.60;33.03;99589.91;5031366;28;854;-61
2022/06/05 07:48:55;;;;;;;;;;;;;;;38.72;32.53;99581.44;5031384;28;842;-61
2022/06/05 07:54:27;;;;;;;;;;;;;;;38.89;32.70;99587.03;5032319;28;692;-61
2022/06/05 07:56:55;;;;;;;;;;;;;;;38.85;33.59;99592.53;5035293;28;823;-61
2022/06/05 07:59:21;;;;;;;;;;;;;;;38.23;34.08;99590.00;5017476;28;1204;-60
2022/06/05 08:01:48;;;;;;;;;;;;;;;38.09;34.36;99591.75;5035272;28;878;-61
2022/06/05 08:04:14;;;;;;;;;;;;;;;38.11;34.39;99595.59;5035104;28;839;-60
2022/06/05 08:06:42;;;;;;;;;;;;;;;37.98;35.44;99593.84;5035145;28;850;-59
2022/06/05 08:09:08;;;;;;;;;;;;;;;38.44;34.61;99594.44;5035022;28;870;-62
2022/06/05 08:11:36;;;;;;;;;;;;;;;38.43;33.52;99592.91;5034899;28;1886;-61
2022/06/05 08:14:03;;;;;;;;;;;;;;;38.41;33.10;99587.75;5034895;28;823;-61
2022/06/05 08:16:30;;;;;;;;;;;;;;;38.34;34.27;99589.41;5034854;28;906;-61
2022/06/05 08:18:57;;;;;;;;;;;;;;;38.64;34.16;99596.00;5034931;28;843;-61
2022/06/05 08:21:23;;;;;;;;;;;;;;;38.76;34.28;99591.16;5034815;28;846;-61
2022/06/05 08:23:50;;;;;;;;;;;;;;;38.78;34.31;99587.66;5034802;28;819;-59
2022/06/05 08:26:17;;;;;;;;;;;;;;;38.50;34.08;99578.38;5034887;28;850;-61
2022/06/05 08:28:44;;;;;;;;;;;;;;;38.76;33.33;99582.50;5034912;28;1004;-61
2022/06/05 08:31:10;;;;;;;;;;;;;;;39.11;32.47;99584.31;5034307;28;1952;-61
2022/06/05 08:33:37;;;;;;;;;;;;;;;39.26;33.33;99578.19;5034672;28;862;-60
2022/06/05 08:36:04;;;;;;;;;;;;;;;38.56;33.58;99575.19;5034710;28;866;-60
2022/06/05 08:41:37;;;;;;;;;;;;;;;37.83;35.60;99573.88;5034513;28;637;-60
2022/06/05 08:44:19;;;;;;;;;;;;;;;38.17;34.86;99577.97;5034470;28;1101;-60
2022/06/05 08:46:55;;;;;;;;;;;;;;;38.45;34.64;99570.72;5034414;28;803;-60
2022/06/05 08:49:40;;;;;;;;;;;;;;;38.31;35.67;99567.53;5034578;28;886;-61
2022/06/05 08:52:27;;;;;;;;;;;;;;;38.22;34.51;99565.41;5034332;28;807;-61
2022/06/05 08:54:56;;;;;;;;;;;;;;;38.30;34.14;99565.25;5034234;28;829;-61
2022/06/05 08:57:41;;;;;;;;;;;;;;;37.98;34.22;99555.56;5034090;28;874;-58
2022/06/05 09:00:13;;;;;;;;;;;;;;;37.21;34.17;99559.59;5034253;28;862;-61
2022/06/05 09:02:45;;;;;;;;;;;;;;;37.12;35.98;99561.06;5034047;28;858;-60
2022/06/05 09:05:32;;;;;;;;;;;;;;;37.33;35.15;99559.81;5033523;28;842;-60
2022/06/05 09:08:01;;;;;;;;;;;;;;;37.46;34.41;99567.31;5034067;28;1168;-59
2022/06/05 09:10:43;;;;;;;;;;;;;;;37.55;35.13;99563.72;5033922;28;1955;-60
2022/06/05 09:13:13;;;;;;;;;;;;;;;37.76;33.95;99548.81;5033814;28;815;-60
2022/06/05 09:15:56;;;;;;;;;;;;;;;36.64;34.71;99546.25;5016002;28;1284;-60
2022/06/05 09:18:23;;;;;;;;;;;;;;;34.83;36.44;99550.00;5033765;28;893;-60
2022/06/05 09:20:53;;;;;;;;;;;;;;;33.60;38.65;99555.81;5033695;28;826;-60
2022/06/05 09:23:28;;;;;;;;;;;;;;;34.09;39.17;99543.22;5033695;28;807;-60
2022/06/05 09:26:16;;;;;;;;;;;;;;;34.86;37.49;99538.09;5033686;28;881;-61
2022/06/05 09:28:51;;;;;;;;;;;;;;;35.23;35.92;99529.94;5033861;28;892;-60
2022/06/05 09:31:19;;;;;;;;;;;;;;;34.41;36.77;99534.00;5033227;28;1951;-59
2022/06/05 09:33:48;;;;;;;;;;;;;;;33.06;38.84;99527.75;5033537;28;815;-60
2022/06/05 09:36:17;;;;;;;;;;;;;;;33.30;39.40;99537.19;5033411;28;803;-60
2022/06/05 09:38:48;;;;;;;;;;;;;;;33.75;38.38;99539.38;5033420;28;858;-62
2022/06/05 09:41:15;;;;;;;;;;;;;;;33.80;38.12;99549.16;5033274;28;853;-60
2022/06/05 09:43:50;;;;;;;;;;;;;;;33.58;39.05;99553.47;5033308;28;847;-61
2022/06/05 09:46:35;;;;;;;;;;;;;;;33.49;38.29;99546.19;5033674;28;834;-61
2022/06/05 09:49:13;;;;;;;;;;;;;;;33.41;39.87;99533.97;5033224;28;827;-61
2022/06/05 09:51:43;;;;;;;;;;;;;;;33.27;38.93;99527.66;5033069;28;2367;-62
2022/06/05 09:54:20;;;;;;;;;;;;;;;33.01;40.46;99517.25;5033134;28;862;-61
2022/06/05 09:59:47;;;;;;;;;;;;;;;33.13;40.07;99514.81;5033052;28;636;-59
2022/06/05 10:30:50;;;;;;;;;;;;;;;32.94;40.89;99489.34;5508311;22;1875;-62
2022/06/05 10:33:38;;;;;;;;;;;;;;;33.85;41.36;99490.09;5014611;28;1298;-62
2022/06/05 10:36:11;;;;;;;;;;;;;;;34.46;39.92;99484.28;5032390;28;814;-62
2022/06/05 10:38:38;;;;;;;;;;;;;;;34.71;39.94;99489.38;5032529;28;988;-62
2022/06/05 10:41:25;;;;;;;;;;;;;;;34.51;40.01;99480.44;5032493;28;574;-62
2022/06/05 10:44:15;;;;;;;;;;;;;;;33.69;41.68;99478.66;5032041;28;1970;-62
2022/06/05 10:47:02;;;;;;;;;;;;;;;33.87;41.70;99473.09;4995354;28;1237;-62
2022/06/05 10:49:33;;;;;;;;;;;;;;;34.49;40.26;99477.38;4992130;28;1204;-62
2022/06/05 10:52:11;;;;;;;;;;;;;;;34.74;40.45;99479.63;5032063;28;1883;-62
2022/06/05 10:54:54;;;;;;;;;;;;;;;35.16;39.09;99484.78;5032052;28;838;-62
2022/06/05 10:57:32;;;;;;;;;;;;;;;35.88;38.16;99476.59;5032190;28;877;-62
2022/06/05 11:00:02;;;;;;;;;;;;;;;36.31;36.78;99474.47;5032135;28;810;-62
2022/06/05 11:02:28;;;;;;;;;;;;;;;36.54;35.89;99474.22;5031916;28;875;-62
2022/06/05 11:05:08;;;;;;;;;;;;;;;36.66;34.95;99462.94;5031894;28;830;-62
2022/06/05 11:07:45;;;;;;;;;;;;;;;36.62;34.65;99465.50;5031605;28;2067;-62
2022/06/05 11:16:16;;;;;;;;;;;;;;;38.36;31.75;99465.44;5032352;28;629;-61
2022/06/05 11:18:52;;;;;;;;;;;;;;;38.17;31.33;99474.09;5031692;28;862;-62
2022/06/05 11:21:21;;;;;;;;;;;;;;;36.62;32.85;99469.16;5014420;28;760;-62
2022/06/05 11:23:50;;;;;;;;;;;;;;;34.77;35.42;99462.00;5031816;28;811;-62
2022/06/05 11:26:25;;;;;;;;;;;;;;;33.21;37.33;99469.78;5013862;28;1161;-62
2022/06/05 11:28:58;;;;;;;;;;;;;;;31.79;40.60;99469.41;5031229;28;1138;-62
2022/06/05 11:31:37;;;;;;;;;;;;;;;30.61;42.18;99483.53;5031298;28;1894;-62
2022/06/05 11:34:20;;;;;;;;;;;;;;;29.41;45.65;99483.38;5031623;28;866;-59
2022/06/05 11:36:51;;;;;;;;;;;;;;;26.82;56.64;99492.41;5031524;28;874;-60
2022/06/05 11:39:35;;;;;;;;;;;;;;;23.39;73.59;99515.69;5014051;28;1665;-60
2022/06/05 11:42:20;;;;;;;;;;;;;;;21.50;84.46;99537.41;5031463;28;889;-68
2022/06/05 11:45:00;;;;;;;;;;;;;;;20.57;87.99;99528.97;5031899;28;779;-67
2022/06/05 11:47:53;;;;;;;;;;;;;;;20.59;90.54;99528.50;5031382;28;948;-67
2022/06/05 11:50:37;;;;;;;;;;;;;;;21.00;91.38;99526.78;5001121;28;1952;-66
2022/06/05 11:53:11;;;;;;;;;;;;;;;21.30;92.33;99517.63;5031451;28;787;-64
2022/06/05 11:55:56;;;;;;;;;;;;;;;21.52;93.05;99501.16;5031659;28;807;-64
2022/06/05 11:58:26;;;;;;;;;;;;;;;21.91;93.73;99474.91;5031192;28;830;-63
2022/06/05 12:01:02;;;;;;;;;;;;;;;22.16;94.02;99448.16;5031586;28;826;-63
2022/06/05 12:03:39;;;;;;;;;;;;;;;22.82;93.33;99438.22;5031168;28;850;-63
2022/06/05 12:06:13;;;;;;;;;;;;;;;23.47;91.62;99429.38;5031223;28;850;-62
2022/06/05 12:08:58;;;;;;;;;;;;;;;24.21;90.74;99441.91;5031145;28;868;-62
2022/06/05 12:11:25;;;;;;;;;;;;;;;25.10;87.91;99448.41;5031224;28;1886;-61
2022/06/05 12:14:10;;;;;;;;;;;;;;;25.43;87.18;99454.09;5031223;28;865;-61
2022/06/05 12:16:36;;;;;;;;;;;;;;;26.00;86.61;99456.88;5031734;28;771;-61
2022/06/05 12:19:09;;;;;;;;;;;;;;;26.18;86.33;99462.00;5031367;28;838;-61
2022/06/05 12:21:56;;;;;;;;;;;;;;;26.42;86.41;99471.97;5031086;28;803;-61
2022/06/05 12:24:26;;;;;;;;;;;;;;;26.90;85.70;99487.72;5013290;28;1280;-61
2022/06/05 12:27:04;;;;;;;;;;;;;;;27.19;84.35;99491.19;5030973;28;846;-61
2022/06/05 12:29:34;;;;;;;;;;;;;;;27.40;84.01;99506.53;5031050;28;979;-61
2022/06/05 12:32:07;;;;;;;;;;;;;;;27.85;83.13;99499.72;5030644;28;1890;-61
2022/06/05 12:34:42;;;;;;;;;;;;;;;28.27;81.32;99501.13;5030898;28;1077;-62
2022/06/05 12:37:23;;;;;;;;;;;;;;;28.97;78.68;99500.53;5030945;28;830;-61
2022/06/05 12:39:52;;;;;;;;;;;;;;;30.31;73.00;99505.38;5031099;28;857;-62
2022/06/05 12:42:19;;;;;;;;;;;;;;;32.60;66.47;99516.09;5034509;28;818;-65
2022/06/05 12:44:47;;;;;;;;;;;;;;;32.38;62.11;99511.75;5034516;28;865;-69
2022/06/05 12:47:32;;;;;;;;;;;;;;;30.97;63.55;99506.66;5034494;28;811;-66
2022/06/05 12:50:19;;;;;;;;;;;;;;;29.63;67.89;99511.47;5034268;28;1910;-68
2022/06/05 12:52:58;;;;;;;;;;;;;;;28.77;70.50;99512.47;5034214;28;1179;-65
2022/06/05 12:55:25;;;;;;;;;;;;;;;27.75;73.22;99507.78;5034230;28;843;-63
2022/06/05 12:58:18;;;;;;;;;;;;;;;27.13;75.45;99491.22;5034120;28;799;-71
2022/06/05 13:00:53;;;;;;;;;;;;;;;26.73;75.87;99484.22;5031110;28;1093;-67
2022/06/05 13:03:36;;;;;;;;;;;;;;;26.34;75.04;99497.22;5034099;28;794;-66
2022/06/05 13:06:14;;;;;;;;;;;;;;;26.03;75.54;99501.16;5034116;28;854;-67
2022/06/05 13:08:51;;;;;;;;;;;;;;;25.95;76.33;99505.81;5034369;28;839;-68
2022/06/05 13:11:25;;;;;;;;;;;;;;;25.99;76.26;99494.97;5033986;28;1963;-69
2022/06/05 13:13:52;;;;;;;;;;;;;;;26.48;76.73;99486.88;5034007;28;910;-68
2022/06/05 13:16:36;;;;;;;;;;;;;;;26.77;76.45;99479.81;5033889;28;827;-70
2022/06/05 13:19:15;;;;;;;;;;;;;;;26.84;77.06;99472.81;5033955;28;834;-70
2022/06/05 13:21:59;;;;;;;;;;;;;;;26.83;77.97;99477.72;5015587;28;1303;-69
2022/06/05 13:24:26;;;;;;;;;;;;;;;26.59;78.98;99478.34;5033748;28;826;-68
2022/06/05 13:27:00;;;;;;;;;;;;;;;26.58;80.93;99490.97;5033877;28;849;-67
2022/06/05 13:29:42;;;;;;;;;;;;;;;26.38;79.93;99488.47;5033989;28;990;-67
2022/06/05 13:32:08;;;;;;;;;;;;;;;26.03;81.67;99487.00;5033328;28;2000;-67
2022/06/05 13:34:40;;;;;;;;;;;;;;;26.03;83.42;99481.31;5033548;28;838;-67
2022/06/05 13:37:19;;;;;;;;;;;;;;;26.00;84.69;99454.06;5033524;28;831;-67
2022/06/05 13:39:52;;;;;;;;;;;;;;;26.33;84.55;99444.69;5033399;28;799;-67
2022/06/05 13:42:21;;;;;;;;;;;;;;;27.22;82.85;99434.16;5033398;28;913;-67
2022/06/05 13:44:55;;;;;;;;;;;;;;;28.82;78.19;99427.06;5033270;28;838;-67
2022/06/05 13:47:24;;;;;;;;;;;;;;;29.65;74.72;99423.41;5033343;28;815;-67
2022/06/05 13:50:09;;;;;;;;;;;;;;;29.27;75.93;99417.09;5033148;28;1973;-67
2022/06/05 13:55:44;;;;;;;;;;;;;;;28.01;78.41;99446.91;5033182;28;658;-66
2022/06/05 13:58:22;;;;;;;;;;;;;;;27.65;80.40;99435.63;5032974;28;869;-66
2022/06/05 14:01:18;;;;;;;;;;;;;;;27.55;81.71;99420.25;5033158;28;795;-66
2022/06/05 14:03:47;;;;;;;;;;;;;;;27.14;81.58;99421.06;4952827;29;1260;-65
2022/06/05 14:06:28;;;;;;;;;;;;;;;26.53;82.37;99432.25;4952796;29;879;-65
2022/06/05 14:08:59;;;;;;;;;;;;;;;25.97;83.65;99440.94;4952748;29;880;-62
2022/06/05 14:11:34;;;;;;;;;;;;;;;25.62;85.28;99443.00;4952742;29;1894;-64
2022/06/05 14:14:03;;;;;;;;;;;;;;;25.54;86.72;99441.22;4952625;29;917;-64
2022/06/05 14:16:55;;;;;;;;;;;;;;;25.47;87.28;99436.84;4952690;29;874;-64
2022/06/05 14:19:23;;;;;;;;;;;;;;;25.35;88.54;99443.78;4950063;29;1092;-64